sensor_id;sensor_type;location;lat;lon;timestamp;pressure;altitude;pressure_sealevel;temperature;humidity
41222;BME280;26952;42.884;23.918;2022-10-17T00:01:46;97224.28;;;5.99;100.00
41222;BME280;26952;42.884;23.918;2022-10-17T00:04:11;97190.66;;;5.79;100.00
41222;BME280;26952;42.884;23.918;2022-10-17T00:06:36;97216.72;;;5.95;100.00
41222;BME280;26952;42.884;23.918;2022-10-17T00:09:02;97211.88;;;6.01;100.00
41222;BME280;26952;42.884;23.918;2022-10-17T00:11:28;97213.75;;;5.99;100.00
41222;BME280;26952;42.884;23.918;2022-10-17T00:13:54;97219.25;;;5.96;100.00
41222;BME280;26952;42.884;23.918;2022-10-17T00:16:25;97214.22;;;5.93;100.00
41222;BME280;26952;42.884;23.918;2022-10-17T00:18:51;97228.91;;;5.96;100.00
41222;BME280;26952;42.884;23.918;2022-10-17T00:21:18;97221.47;;;5.90;100.00
41222;BME280;26952;42.884;23.918;2022-10-17T00:23:45;97224.00;;;5.91;100.00
41222;BME280;26952;42.884;23.918;2022-10-17T00:26:11;97219.66;;;5.90;100.00
41222;BME280;26952;42.884;23.918;2022-10-17T00:28:36;97221.59;;;5.88;100.00
41222;BME280;26952;42.884;23.918;2022-10-17T00:31:04;97223.38;;;5.88;100.00
41222;BME280;26952;42.884;23.918;2022-10-17T00:33:32;97218.00;;;5.89;100.00
41222;BME280;26952;42.884;23.918;2022-10-17T00:36:03;97232.91;;;5.89;100.00
41222;BME280;26952;42.884;23.918;2022-10-17T00:38:28;97232.13;;;5.63;100.00
41222;BME280;26952;42.884;23.918;2022-10-17T00:40:54;97234.22;;;5.71;100.00
41222;BME280;26952;42.884;23.918;2022-10-17T00:43:19;97227.94;;;5.60;100.00
41222;BME280;26952;42.884;23.918;2022-10-17T00:45:45;97230.47;;;5.62;100.00
41222;BME280;26952;42.884;23.918;2022-10-17T00:48:10;97236.75;;;5.72;100.00
41222;BME280;26952;42.884;23.918;2022-10-17T00:50:39;97241.59;;;5.53;100.00
41222;BME280;26952;42.884;23.918;2022-10-17T00:53:06;97246.88;;;5.28;100.00
41222;BME280;26952;42.884;23.918;2022-10-17T00:55:36;97232.59;;;5.32;100.00
41222;BME280;26952;42.884;23.918;2022-10-17T00:58:03;97238.47;;;5.23;100.00
41222;BME280;26952;42.884;23.918;2022-10-17T01:00:30;97245.63;;;5.21;100.00
41222;BME280;26952;42.884;23.918;2022-10-17T01:02:55;97242.25;;;5.19;100.00
41222;BME280;26952;42.884;23.918;2022-10-17T01:05:21;97247.94;;;5.13;100.00
41222;BME280;26952;42.884;23.918;2022-10-17T01:07:49;97241.22;;;5.09;100.00
41222;BME280;26952;42.884;23.918;2022-10-17T01:10:16;97241.09;;;4.98;100.00
41222;BME280;26952;42.884;23.918;2022-10-17T01:15:33;97245.00;;;5.05;100.00
41222;BME280;26952;42.884;23.918;2022-10-17T01:31:14;97252.34;;;5.00;100.00
41222;BME280;26952;42.884;23.918;2022-10-17T01:34:15;97252.13;;;5.03;100.00
41222;BME280;26952;42.884;23.918;2022-10-17T01:41:42;97242.47;;;4.91;100.00
41222;BME280;26952;42.884;23.918;2022-10-17T01:44:18;97232.06;;;4.77;100.00
41222;BME280;26952;42.884;23.918;2022-10-17T01:46:48;97248.53;;;4.79;100.00
41222;BME280;26952;42.884;23.918;2022-10-17T01:49:16;97247.06;;;4.75;100.00
41222;BME280;26952;42.884;23.918;2022-10-17T01:51:47;97237.94;;;4.80;100.00
41222;BME280;26952;42.884;23.918;2022-10-17T01:54:22;97256.19;;;4.82;100.00
41222;BME280;26952;42.884;23.918;2022-10-17T01:56:53;97238.91;;;4.79;100.00
41222;BME280;26952;42.884;23.918;2022-10-17T01:59:32;97248.31;;;4.82;100.00
41222;BME280;26952;42.884;23.918;2022-10-17T02:02:00;97247.91;;;4.75;100.00
41222;BME280;26952;42.884;23.918;2022-10-17T02:04:26;97240.34;;;4.71;100.00
41222;BME280;26952;42.884;23.918;2022-10-17T02:06:52;97247.91;;;4.75;100.00
41222;BME280;26952;42.884;23.918;2022-10-17T02:09:25;97249.50;;;4.78;100.00
41222;BME280;26952;42.884;23.918;2022-10-17T02:11:59;97255.28;;;4.83;100.00
41222;BME280;26952;42.884;23.918;2022-10-17T02:27:47;97280.44;;;4.85;100.00
41222;BME280;26952;42.884;23.918;2022-10-17T02:30:41;97281.94;;;4.89;100.00
41222;BME280;26952;42.884;23.918;2022-10-17T02:33:40;97289.28;;;4.97;100.00
41222;BME280;26952;42.884;23.918;2022-10-17T02:36:12;97278.78;;;4.97;100.00
41222;BME280;26952;42.884;23.918;2022-10-17T02:38:40;97277.13;;;4.96;100.00
41222;BME280;26952;42.884;23.918;2022-10-17T02:41:10;97268.06;;;4.87;100.00
41222;BME280;26952;42.884;23.918;2022-10-17T02:43:36;97287.91;;;4.91;100.00
41222;BME280;26952;42.884;23.918;2022-10-17T02:46:04;97271.50;;;4.75;100.00
41222;BME280;26952;42.884;23.918;2022-10-17T02:48:36;97267.41;;;4.59;100.00
41222;BME280;26952;42.884;23.918;2022-10-17T02:51:37;97281.63;;;4.55;100.00
41222;BME280;26952;42.884;23.918;2022-10-17T02:54:18;97291.91;;;4.58;100.00
41222;BME280;26952;42.884;23.918;2022-10-17T02:56:50;97279.13;;;4.53;100.00
41222;BME280;26952;42.884;23.918;2022-10-17T02:59:20;97290.25;;;4.57;100.00
41222;BME280;26952;42.884;23.918;2022-10-17T03:01:48;97283.72;;;4.50;100.00
41222;BME280;26952;42.884;23.918;2022-10-17T03:04:15;97296.63;;;4.53;100.00
41222;BME280;26952;42.884;23.918;2022-10-17T03:06:41;97294.75;;;4.55;100.00
41222;BME280;26952;42.884;23.918;2022-10-17T03:09:07;97292.13;;;4.55;100.00
41222;BME280;26952;42.884;23.918;2022-10-17T03:11:32;97288.97;;;4.50;100.00
41222;BME280;26952;42.884;23.918;2022-10-17T03:13:58;97286.44;;;4.48;100.00
41222;BME280;26952;42.884;23.918;2022-10-17T03:16:23;97290.25;;;4.57;100.00
41222;BME280;26952;42.884;23.918;2022-10-17T03:18:49;97295.94;;;4.63;100.00
41222;BME280;26952;42.884;23.918;2022-10-17T03:21:14;97294.88;;;4.66;100.00
41222;BME280;26952;42.884;23.918;2022-10-17T03:23:40;97296.38;;;4.70;100.00
41222;BME280;26952;42.884;23.918;2022-10-17T03:26:06;97301.41;;;4.73;100.00
41222;BME280;26952;42.884;23.918;2022-10-17T03:28:32;97291.94;;;4.70;100.00
41222;BME280;26952;42.884;23.918;2022-10-17T03:30:57;97287.50;;;4.46;100.00
41222;BME280;26952;42.884;23.918;2022-10-17T03:33:23;97288.31;;;4.46;100.00
41222;BME280;26952;42.884;23.918;2022-10-17T03:35:48;97294.84;;;4.53;100.00
41222;BME280;26952;42.884;23.918;2022-10-17T03:38:14;97305.44;;;4.52;100.00
41222;BME280;26952;42.884;23.918;2022-10-17T03:40:39;97299.84;;;4.44;100.00
41222;BME280;26952;42.884;23.918;2022-10-17T03:43:05;97296.47;;;4.42;100.00
41222;BME280;26952;42.884;23.918;2022-10-17T03:45:30;97300.59;;;4.46;100.00
41222;BME280;26952;42.884;23.918;2022-10-17T03:47:57;97304.91;;;4.47;100.00
41222;BME280;26952;42.884;23.918;2022-10-17T03:50:23;97307.41;;;4.48;100.00
41222;BME280;26952;42.884;23.918;2022-10-17T03:52:48;97291.44;;;4.39;100.00
41222;BME280;26952;42.884;23.918;2022-10-17T03:55:14;97303.03;;;4.49;100.00
41222;BME280;26952;42.884;23.918;2022-10-17T03:57:40;97302.69;;;4.41;100.00
41222;BME280;26952;42.884;23.918;2022-10-17T04:00:06;97312.00;;;4.45;100.00
41222;BME280;26952;42.884;23.918;2022-10-17T04:02:31;97306.97;;;4.42;100.00
41222;BME280;26952;42.884;23.918;2022-10-17T04:04:56;97312.22;;;4.42;100.00
41222;BME280;26952;42.884;23.918;2022-10-17T04:07:22;97319.13;;;4.43;100.00
41222;BME280;26952;42.884;23.918;2022-10-17T04:09:47;97309.25;;;4.34;100.00
41222;BME280;26952;42.884;23.918;2022-10-17T04:12:13;97310.75;;;4.38;100.00
41222;BME280;26952;42.884;23.918;2022-10-17T04:14:38;97323.31;;;4.33;100.00
41222;BME280;26952;42.884;23.918;2022-10-17T04:17:04;97328.75;;;4.30;100.00
41222;BME280;26952;42.884;23.918;2022-10-17T04:19:29;97311.59;;;3.97;100.00
41222;BME280;26952;42.884;23.918;2022-10-17T04:21:55;97318.53;;;3.98;100.00
41222;BME280;26952;42.884;23.918;2022-10-17T04:24:20;97330.88;;;3.96;100.00
41222;BME280;26952;42.884;23.918;2022-10-17T04:26:48;97318.88;;;3.92;100.00
41222;BME280;26952;42.884;23.918;2022-10-17T04:29:14;97321.78;;;3.88;100.00
41222;BME280;26952;42.884;23.918;2022-10-17T04:31:39;97330.50;;;3.88;100.00
41222;BME280;26952;42.884;23.918;2022-10-17T04:34:05;97326.38;;;3.98;100.00
41222;BME280;26952;42.884;23.918;2022-10-17T04:36:30;97327.69;;;3.91;100.00
41222;BME280;26952;42.884;23.918;2022-10-17T04:38:55;97336.09;;;3.96;100.00
41222;BME280;26952;42.884;23.918;2022-10-17T04:41:21;97334.50;;;3.94;100.00
41222;BME280;26952;42.884;23.918;2022-10-17T04:43:46;97334.97;;;4.00;100.00
41222;BME280;26952;42.884;23.918;2022-10-17T04:46:13;97338.44;;;4.01;100.00
41222;BME280;26952;42.884;23.918;2022-10-17T04:48:39;97342.00;;;4.00;100.00
41222;BME280;26952;42.884;23.918;2022-10-17T04:51:07;97341.41;;;4.09;100.00
41222;BME280;26952;42.884;23.918;2022-10-17T04:53:35;97350.56;;;4.16;100.00
41222;BME280;26952;42.884;23.918;2022-10-17T04:56:16;97343.47;;;4.18;100.00
41222;BME280;26952;42.884;23.918;2022-10-17T04:58:43;97337.00;;;4.09;100.00
41222;BME280;26952;42.884;23.918;2022-10-17T05:01:15;97346.72;;;4.21;100.00
41222;BME280;26952;42.884;23.918;2022-10-17T05:03:41;97352.34;;;4.30;100.00
41222;BME280;26952;42.884;23.918;2022-10-17T05:06:19;97361.88;;;4.31;100.00
41222;BME280;26952;42.884;23.918;2022-10-17T05:08:46;97343.81;;;4.26;100.00
41222;BME280;26952;42.884;23.918;2022-10-17T05:11:26;97353.50;;;4.38;100.00
41222;BME280;26952;42.884;23.918;2022-10-17T05:13:56;97359.41;;;4.42;100.00
41222;BME280;26952;42.884;23.918;2022-10-17T05:16:22;97366.13;;;4.46;100.00
41222;BME280;26952;42.884;23.918;2022-10-17T05:18:53;97355.31;;;4.38;100.00
41222;BME280;26952;42.884;23.918;2022-10-17T05:21:19;97367.81;;;4.47;100.00
41222;BME280;26952;42.884;23.918;2022-10-17T05:23:45;97361.97;;;4.56;100.00
41222;BME280;26952;42.884;23.918;2022-10-17T05:26:11;97372.53;;;4.68;100.00
41222;BME280;26952;42.884;23.918;2022-10-17T05:28:37;97333.09;;;4.43;100.00
41222;BME280;26952;42.884;23.918;2022-10-17T05:31:06;97369.41;;;4.76;100.00
41222;BME280;26952;42.884;23.918;2022-10-17T05:33:33;97371.59;;;4.82;100.00
41222;BME280;26952;42.884;23.918;2022-10-17T05:35:59;97389.19;;;4.94;100.00
41222;BME280;26952;42.884;23.918;2022-10-17T05:38:24;97374.47;;;4.91;100.00
41222;BME280;26952;42.884;23.918;2022-10-17T05:40:50;97354.44;;;4.90;100.00
41222;BME280;26952;42.884;23.918;2022-10-17T05:43:15;97380.84;;;5.14;100.00
41222;BME280;26952;42.884;23.918;2022-10-17T05:45:41;97382.09;;;5.08;100.00
41222;BME280;26952;42.884;23.918;2022-10-17T05:48:06;97386.91;;;5.14;100.00
41222;BME280;26952;42.884;23.918;2022-10-17T05:50:33;97387.16;;;5.24;100.00
41222;BME280;26952;42.884;23.918;2022-10-17T05:52:58;97385.88;;;5.17;100.00
41222;BME280;26952;42.884;23.918;2022-10-17T05:55:24;97371.69;;;5.07;100.00
41222;BME280;26952;42.884;23.918;2022-10-17T05:57:49;97400.69;;;5.30;100.00
41222;BME280;26952;42.884;23.918;2022-10-17T06:00:17;97414.06;;;5.40;100.00
41222;BME280;26952;42.884;23.918;2022-10-17T06:02:42;97404.81;;;5.47;100.00
41222;BME280;26952;42.884;23.918;2022-10-17T06:05:10;97415.66;;;5.55;100.00
41222;BME280;26952;42.884;23.918;2022-10-17T06:07:36;97401.56;;;5.56;100.00
41222;BME280;26952;42.884;23.918;2022-10-17T06:10:01;97413.88;;;5.68;100.00
41222;BME280;26952;42.884;23.918;2022-10-17T06:12:27;97404.13;;;5.70;100.00
41222;BME280;26952;42.884;23.918;2022-10-17T06:14:52;97408.94;;;5.76;100.00
41222;BME280;26952;42.884;23.918;2022-10-17T06:17:18;97402.38;;;5.83;100.00
41222;BME280;26952;42.884;23.918;2022-10-17T06:19:43;97407.59;;;6.08;100.00
41222;BME280;26952;42.884;23.918;2022-10-17T06:22:09;97395.97;;;6.48;100.00
41222;BME280;26952;42.884;23.918;2022-10-17T06:24:35;97411.03;;;7.17;100.00
41222;BME280;26952;42.884;23.918;2022-10-17T06:27:00;97428.38;;;7.78;100.00
41222;BME280;26952;42.884;23.918;2022-10-17T06:29:25;97419.34;;;8.26;100.00
41222;BME280;26952;42.884;23.918;2022-10-17T06:31:51;97423.94;;;8.89;100.00
41222;BME280;26952;42.884;23.918;2022-10-17T06:34:16;97427.44;;;9.32;100.00
41222;BME280;26952;42.884;23.918;2022-10-17T06:36:42;97414.88;;;9.65;100.00
41222;BME280;26952;42.884;23.918;2022-10-17T06:39:07;97425.69;;;10.04;100.00
41222;BME280;26952;42.884;23.918;2022-10-17T06:41:33;97422.31;;;10.43;100.00
41222;BME280;26952;42.884;23.918;2022-10-17T06:43:58;97428.03;;;10.78;100.00
41222;BME280;26952;42.884;23.918;2022-10-17T06:46:24;97416.91;;;11.03;100.00
41222;BME280;26952;42.884;23.918;2022-10-17T06:48:51;97426.44;;;11.34;100.00
41222;BME280;26952;42.884;23.918;2022-10-17T06:51:17;97417.41;;;11.65;100.00
41222;BME280;26952;42.884;23.918;2022-10-17T06:53:42;97421.44;;;11.79;100.00
41222;BME280;26952;42.884;23.918;2022-10-17T06:56:09;97412.56;;;12.16;99.98
41222;BME280;26952;42.884;23.918;2022-10-17T06:58:37;97427.19;;;12.39;97.35
41222;BME280;26952;42.884;23.918;2022-10-17T07:01:09;97421.53;;;12.52;95.23
41222;BME280;26952;42.884;23.918;2022-10-17T07:03:35;97417.97;;;12.71;94.41
41222;BME280;26952;42.884;23.918;2022-10-17T07:06:01;97424.38;;;12.95;94.36
41222;BME280;26952;42.884;23.918;2022-10-17T07:08:26;97412.94;;;12.95;93.35
41222;BME280;26952;42.884;23.918;2022-10-17T07:10:53;97430.69;;;12.94;94.31
41222;BME280;26952;42.884;23.918;2022-10-17T07:13:18;97431.47;;;12.87;94.92
41222;BME280;26952;42.884;23.918;2022-10-17T07:15:44;97433.50;;;12.93;93.47
41222;BME280;26952;42.884;23.918;2022-10-17T07:18:10;97433.63;;;13.01;91.00
41222;BME280;26952;42.884;23.918;2022-10-17T07:20:36;97433.91;;;12.98;94.08
41222;BME280;26952;42.884;23.918;2022-10-17T07:23:02;97437.47;;;13.16;96.91
41222;BME280;26952;42.884;23.918;2022-10-17T07:25:28;97437.31;;;12.90;89.88
41222;BME280;26952;42.884;23.918;2022-10-17T07:27:54;97444.84;;;12.95;91.15
41222;BME280;26952;42.884;23.918;2022-10-17T07:30:20;97436.38;;;12.82;91.84
41222;BME280;26952;42.884;23.918;2022-10-17T07:32:46;97447.19;;;12.98;92.43
41222;BME280;26952;42.884;23.918;2022-10-17T07:35:12;97439.19;;;13.07;91.14
41222;BME280;26952;42.884;23.918;2022-10-17T07:37:37;97455.63;;;13.20;86.41
41222;BME280;26952;42.884;23.918;2022-10-17T07:40:05;97444.94;;;13.30;91.52
41222;BME280;26952;42.884;23.918;2022-10-17T07:42:31;97459.88;;;13.58;88.34
41222;BME280;26952;42.884;23.918;2022-10-17T07:44:57;97458.63;;;13.70;86.75
41222;BME280;26952;42.884;23.918;2022-10-17T07:47:22;97459.41;;;13.80;80.80
41222;BME280;26952;42.884;23.918;2022-10-17T07:49:48;97454.75;;;13.82;81.97
41222;BME280;26952;42.884;23.918;2022-10-17T07:52:14;97449.13;;;13.85;84.96
41222;BME280;26952;42.884;23.918;2022-10-17T07:54:40;97451.16;;;13.91;82.15
41222;BME280;26952;42.884;23.918;2022-10-17T07:57:06;97443.03;;;13.92;81.14
41222;BME280;26952;42.884;23.918;2022-10-17T07:59:32;97446.38;;;13.94;78.05
41222;BME280;26952;42.884;23.918;2022-10-17T08:01:58;97448.88;;;13.96;84.94
41222;BME280;26952;42.884;23.918;2022-10-17T08:04:24;97449.94;;;14.03;80.96
41222;BME280;26952;42.884;23.918;2022-10-17T08:06:50;97453.72;;;14.36;77.60
41222;BME280;26952;42.884;23.918;2022-10-17T08:09:16;97455.00;;;14.32;85.46
41222;BME280;26952;42.884;23.918;2022-10-17T08:11:41;97435.34;;;14.25;75.08
41222;BME280;26952;42.884;23.918;2022-10-17T08:14:10;97437.63;;;14.45;76.96
41222;BME280;26952;42.884;23.918;2022-10-17T08:16:36;97447.72;;;14.67;72.46
41222;BME280;26952;42.884;23.918;2022-10-17T08:19:02;97439.22;;;14.64;74.72
41222;BME280;26952;42.884;23.918;2022-10-17T08:21:27;97447.47;;;14.78;74.17
41222;BME280;26952;42.884;23.918;2022-10-17T08:23:53;97446.06;;;15.00;75.44
41222;BME280;26952;42.884;23.918;2022-10-17T08:26:18;97449.66;;;15.24;65.76
41222;BME280;26952;42.884;23.918;2022-10-17T08:28:45;97457.81;;;15.23;66.21
41222;BME280;26952;42.884;23.918;2022-10-17T08:31:13;97461.97;;;15.25;73.99
41222;BME280;26952;42.884;23.918;2022-10-17T08:33:40;97447.66;;;15.26;71.01
41222;BME280;26952;42.884;23.918;2022-10-17T08:36:06;97439.41;;;15.46;68.11
41222;BME280;26952;42.884;23.918;2022-10-17T08:38:33;97445.78;;;15.77;70.57
41222;BME280;26952;42.884;23.918;2022-10-17T08:41:01;97425.56;;;15.74;63.88
41222;BME280;26952;42.884;23.918;2022-10-17T08:46:17;97432.94;;;16.28;64.98
41222;BME280;26952;42.884;23.918;2022-10-17T08:48:45;97424.06;;;16.20;59.81
41222;BME280;26952;42.884;23.918;2022-10-17T08:51:20;97405.69;;;16.33;56.71
41222;BME280;26952;42.884;23.918;2022-10-17T08:53:55;97433.69;;;16.77;59.30
41222;BME280;26952;42.884;23.918;2022-10-17T08:56:25;97430.31;;;16.83;56.51
41222;BME280;26952;42.884;23.918;2022-10-17T08:58:51;97431.09;;;17.00;57.27
41222;BME280;26952;42.884;23.918;2022-10-17T09:17:59;97430.88;;;17.70;46.72
41222;BME280;26952;42.884;23.918;2022-10-17T09:20:37;97433.94;;;17.67;48.82
41222;BME280;26952;42.884;23.918;2022-10-17T09:23:12;97436.19;;;17.78;47.02
41222;BME280;26952;42.884;23.918;2022-10-17T09:25:46;97433.63;;;18.08;48.97
41222;BME280;26952;42.884;23.918;2022-10-17T09:33:27;97444.28;;;18.16;45.35
41222;BME280;26952;42.884;23.918;2022-10-17T09:35:55;97436.59;;;18.13;45.85
41222;BME280;26952;42.884;23.918;2022-10-17T09:38:25;97440.41;;;18.41;47.30
41222;BME280;26952;42.884;23.918;2022-10-17T09:40:56;97438.22;;;18.59;45.89
41222;BME280;26952;42.884;23.918;2022-10-17T09:43:22;97434.25;;;18.98;46.32
41222;BME280;26952;42.884;23.918;2022-10-17T09:48:54;97427.84;;;19.14;46.57
41222;BME280;26952;42.884;23.918;2022-10-17T09:51:22;97430.72;;;19.12;43.15
41222;BME280;26952;42.884;23.918;2022-10-17T09:53:56;97431.03;;;19.03;42.74
41222;BME280;26952;42.884;23.918;2022-10-17T09:56:25;97425.81;;;19.16;42.29
41222;BME280;26952;42.884;23.918;2022-10-17T09:58:52;97422.84;;;19.40;42.67
41222;BME280;26952;42.884;23.918;2022-10-17T10:06:31;97421.22;;;19.81;41.64
41222;BME280;26952;42.884;23.918;2022-10-17T10:08:57;97409.59;;;19.74;43.43
41222;BME280;26952;42.884;23.918;2022-10-17T10:11:50;97412.69;;;19.57;40.99
41222;BME280;26952;42.884;23.918;2022-10-17T10:14:36;97414.44;;;19.64;42.35
41222;BME280;26952;42.884;23.918;2022-10-17T10:20:35;97418.88;;;19.57;41.20
41222;BME280;26952;42.884;23.918;2022-10-17T10:23:06;97411.34;;;19.67;43.01
41222;BME280;26952;42.884;23.918;2022-10-17T10:25:32;97397.66;;;19.83;41.93
41222;BME280;26952;42.884;23.918;2022-10-17T10:27:59;97395.81;;;20.26;39.95
41222;BME280;26952;42.884;23.918;2022-10-17T10:30:28;97401.78;;;20.49;40.94
41222;BME280;26952;42.884;23.918;2022-10-17T10:32:56;97394.94;;;20.46;39.63
41222;BME280;26952;42.884;23.918;2022-10-17T10:35:32;97396.13;;;20.37;39.79
41222;BME280;26952;42.884;23.918;2022-10-17T10:38:00;97396.50;;;20.13;39.31
41222;BME280;26952;42.884;23.918;2022-10-17T10:40:34;97388.19;;;20.08;41.20
41222;BME280;26952;42.884;23.918;2022-10-17T10:43:02;97379.81;;;20.18;38.20
41222;BME280;26952;42.884;23.918;2022-10-17T10:50:50;97390.16;;;19.37;39.31
41222;BME280;26952;42.884;23.918;2022-10-17T11:06:27;97369.03;;;18.54;37.28
41222;BME280;26952;42.884;23.918;2022-10-17T11:09:08;97377.78;;;18.92;35.35
41222;BME280;26952;42.884;23.918;2022-10-17T11:11:39;97371.47;;;19.14;35.86
41222;BME280;26952;42.884;23.918;2022-10-17T11:19:53;97362.78;;;18.97;35.35
41222;BME280;26952;42.884;23.918;2022-10-17T11:22:31;97356.00;;;18.66;36.60
41222;BME280;26952;42.884;23.918;2022-10-17T11:25:05;97372.72;;;18.68;36.54
41222;BME280;26952;42.884;23.918;2022-10-17T11:27:37;97357.88;;;19.01;37.03
41222;BME280;26952;42.884;23.918;2022-10-17T11:30:03;97362.44;;;19.36;36.31
41222;BME280;26952;42.884;23.918;2022-10-17T11:32:46;97317.69;;;18.43;36.87
41222;BME280;26952;42.884;23.918;2022-10-17T11:35:44;97364.75;;;18.45;36.62
41222;BME280;26952;42.884;23.918;2022-10-17T11:38:24;97355.34;;;18.64;37.20
41222;BME280;26952;42.884;23.918;2022-10-17T11:40:55;97356.91;;;18.73;38.44
41222;BME280;26952;42.884;23.918;2022-10-17T11:43:25;97354.03;;;18.60;37.12
41222;BME280;26952;42.884;23.918;2022-10-17T11:45:57;97326.31;;;18.30;37.28
41222;BME280;26952;42.884;23.918;2022-10-17T11:48:33;97352.94;;;18.69;37.47
41222;BME280;26952;42.884;23.918;2022-10-17T11:51:07;97349.59;;;18.67;38.33
41222;BME280;26952;42.884;23.918;2022-10-17T11:53:49;97325.72;;;18.72;38.17
41222;BME280;26952;42.884;23.918;2022-10-17T11:56:22;97355.44;;;18.70;37.75
41222;BME280;26952;42.884;23.918;2022-10-17T12:01:45;97338.97;;;19.09;37.09
41222;BME280;26952;42.884;23.918;2022-10-17T12:04:22;97342.47;;;18.88;37.03
41222;BME280;26952;42.884;23.918;2022-10-17T12:12:05;97332.19;;;18.63;37.86
41222;BME280;26952;42.884;23.918;2022-10-17T12:14:35;97339.41;;;18.77;37.25
41222;BME280;26952;42.884;23.918;2022-10-17T12:17:02;97332.69;;;19.02;37.43
41222;BME280;26952;42.884;23.918;2022-10-17T12:19:30;97331.56;;;19.11;36.87
41222;BME280;26952;42.884;23.918;2022-10-17T12:22:16;97336.41;;;19.01;36.97
41222;BME280;26952;42.884;23.918;2022-10-17T12:24:51;97326.13;;;19.04;38.82
41222;BME280;26952;42.884;23.918;2022-10-17T12:27:43;97334.44;;;18.74;37.81
41222;BME280;26952;42.884;23.918;2022-10-17T12:30:25;97322.84;;;18.73;37.87
41222;BME280;26952;42.884;23.918;2022-10-17T12:35:29;97333.13;;;18.55;38.20
41222;BME280;26952;42.884;23.918;2022-10-17T12:52:03;97338.34;;;19.43;36.76
41222;BME280;26952;42.884;23.918;2022-10-17T12:54:18;97328.53;;;18.99;36.70
41222;BME280;26952;42.884;23.918;2022-10-17T12:56:46;97322.22;;;19.07;36.94
41222;BME280;26952;42.884;23.918;2022-10-17T13:01:44;97322.16;;;19.00;37.83
41222;BME280;26952;42.884;23.918;2022-10-17T13:04:11;97333.66;;;18.80;37.69
41222;BME280;26952;42.884;23.918;2022-10-17T13:07:10;97320.44;;;18.78;37.91
41222;BME280;26952;42.884;23.918;2022-10-17T13:09:42;97316.19;;;18.69;37.24
41222;BME280;26952;42.884;23.918;2022-10-17T13:12:13;97300.44;;;18.81;37.45
41222;BME280;26952;42.884;23.918;2022-10-17T13:14:41;97308.91;;;18.99;38.12
41222;BME280;26952;42.884;23.918;2022-10-17T13:17:24;97317.03;;;18.70;37.96
41222;BME280;26952;42.884;23.918;2022-10-17T13:19:49;97324.59;;;18.66;38.15
41222;BME280;26952;42.884;23.918;2022-10-17T13:22:22;97324.34;;;18.61;38.01
41222;BME280;26952;42.884;23.918;2022-10-17T13:24:49;97313.22;;;18.50;37.83
41222;BME280;26952;42.884;23.918;2022-10-17T13:27:26;97325.09;;;18.41;37.79
41222;BME280;26952;42.884;23.918;2022-10-17T13:29:52;97322.41;;;18.41;38.78
41222;BME280;26952;42.884;23.918;2022-10-17T13:32:20;97325.63;;;18.36;38.68
41222;BME280;26952;42.884;23.918;2022-10-17T13:34:46;97324.72;;;18.44;38.99
41222;BME280;26952;42.884;23.918;2022-10-17T13:37:28;97320.94;;;18.53;37.63
41222;BME280;26952;42.884;23.918;2022-10-17T13:39:54;97307.84;;;18.64;42.52
41222;BME280;26952;42.884;23.918;2022-10-17T13:42:26;97329.94;;;18.81;37.88
41222;BME280;26952;42.884;23.918;2022-10-17T13:44:52;97318.03;;;18.83;40.19
41222;BME280;26952;42.884;23.918;2022-10-17T13:47:22;97320.22;;;18.94;43.49
41222;BME280;26952;42.884;23.918;2022-10-17T13:49:49;97334.25;;;18.75;43.61
41222;BME280;26952;42.884;23.918;2022-10-17T13:52:20;97303.69;;;18.04;44.10
41222;BME280;26952;42.884;23.918;2022-10-17T13:54:48;97329.44;;;18.05;44.89
41222;BME280;26952;42.884;23.918;2022-10-17T13:57:27;97324.34;;;17.95;47.14
41222;BME280;26952;42.884;23.918;2022-10-17T13:59:56;97329.94;;;17.71;47.79
41222;BME280;26952;42.884;23.918;2022-10-17T14:02:24;97326.50;;;17.62;48.08
41222;BME280;26952;42.884;23.918;2022-10-17T14:05:03;97318.13;;;17.35;47.12
41222;BME280;26952;42.884;23.918;2022-10-17T14:07:38;97334.75;;;17.30;49.41
41222;BME280;26952;42.884;23.918;2022-10-17T14:10:05;97331.69;;;17.11;49.16
41222;BME280;26952;42.884;23.918;2022-10-17T14:12:42;97332.88;;;17.08;49.54
41222;BME280;26952;42.884;23.918;2022-10-17T14:15:12;97335.63;;;17.00;50.25
41222;BME280;26952;42.884;23.918;2022-10-17T14:17:39;97340.56;;;16.81;49.16
41222;BME280;26952;42.884;23.918;2022-10-17T14:20:05;97337.34;;;16.38;52.09
41222;BME280;26952;42.884;23.918;2022-10-17T14:22:35;97342.91;;;16.29;54.37
41222;BME280;26952;42.884;23.918;2022-10-17T14:25:02;97353.31;;;16.08;54.26
41222;BME280;26952;42.884;23.918;2022-10-17T14:27:33;97349.66;;;15.53;56.93
41222;BME280;26952;42.884;23.918;2022-10-17T14:32:51;97356.25;;;15.16;58.48
41222;BME280;26952;42.884;23.918;2022-10-17T14:35:18;97351.50;;;14.78;61.06
41222;BME280;26952;42.884;23.918;2022-10-17T14:37:45;97358.13;;;14.74;61.89
41222;BME280;26952;42.884;23.918;2022-10-17T14:40:31;97354.34;;;14.43;63.41
41222;BME280;26952;42.884;23.918;2022-10-17T14:42:59;97344.84;;;14.15;64.29
41222;BME280;26952;42.884;23.918;2022-10-17T14:45:35;97348.03;;;13.93;66.86
41222;BME280;26952;42.884;23.918;2022-10-17T14:48:16;97352.19;;;13.70;68.19
41222;BME280;26952;42.884;23.918;2022-10-17T14:53:30;97367.56;;;13.41;69.41
41222;BME280;26952;42.884;23.918;2022-10-17T14:55:58;97355.13;;;13.24;70.11
41222;BME280;26952;42.884;23.918;2022-10-17T14:58:28;97355.66;;;13.27;67.46
41222;BME280;26952;42.884;23.918;2022-10-17T15:00:55;97358.41;;;13.18;69.96
41222;BME280;26952;42.884;23.918;2022-10-17T15:03:21;97344.38;;;12.98;72.13
41222;BME280;26952;42.884;23.918;2022-10-17T15:05:48;97359.78;;;12.95;71.25
41222;BME280;26952;42.884;23.918;2022-10-17T15:08:16;97368.44;;;12.97;71.63